Latest Observation

42 Stations

15 Minute Data | America/Los_Angeles
as of 9/3/26 5:47 PM PDT
Station Date Time Temp (°F) RH (%) Dew Pt (°F) Wind Spd (mph) Wind Dir (°) Wind Gust (mph) Latest Rain (In) Daily Rain (In) Daily Min Temp (°F) Daily Max Temp (°F) Daily Max Wind (mph)
Elk Mt. Farm 8/13/26 1500 85.6   7.4 - - - - - - - 51.4   1.1 85.6   7.4 -
Upper Lake 9/3/26 1745 60.6   8.4 74   29 52.4   5.6 1.8 NNW | 336 9.3   0.3 0.00 0.02 58.1   8.2 68.3   4.9 15.7   3.1
Scotts Valley 9/3/26 1745 60.2   6.6 75   23 52.2   3.7 1.2 WNW | 295 5.8   5.5 0.00 0.00 58.3   6.3 69.3   3.9 13.2   1.3
Scotts Valley-South (Bella Vista) 9/3/26 1745 59.8   6.6 72   25 50.9   5.0 2.7 NW | 322 6.7   4.6 0.00 0.01 57.8   5.0 68.5   2.9 13.7   0.1
Kelseyville 9/3/26 1745 60.0   8.8 85   39 55.6   8.0 2.2 S | 172 5.9   11.4 0.00 0.00 58.6   4.7 70.7   1.1 17.5   0.2
Kelseyville Remote 9/3/26 1745 60.8   8.3 75   36 52.9   9.4 - - - 0.00 0.00 59.4   4.9 70.1   2.8 -
Kelseyville (Clark Drive) 9/3/26 1745 59.0   13.1 - - - - - 0.01 0.04 56.7   3.3 70.8   4.6 -
Kelsey Bench (Oaklea) 9/3/26 1745 58.4   9.9 87   42 54.7   8.5 0.6 SSE | 159 3.8   9.5 0.00 0.02 55.8   3.1 68.2   3.7 16.0   0.1
Smith Lane (Kelseyville-South) 9/3/26 1745 59.8   11.2 87   43 56.0   7.6 2.1 S | 174 5.4   6.1 0.00 0.01 58.6   4.9 70.8   3.1 14.9   0.6
Bell Hill-West 9/3/26 1745 59.5   9.9 95   41 58.2   5.9 3.1 SSW | 205 5.4   5.0 0.00 0.00 57.2   2.9 69.8   2.4 16.2   0.0
High Valley Ridgeline (Brassfield) 9/3/26 1430 64.3   0.5 52   2 46.4   1.6 12.2 WSW | 242 17.9   7.4 0.00 0.01 55.0   3.7 66.3   0.1 20.5   5.3
Wight Way (Adobe Creek) 9/3/26 1700 59.0   18.7 90   56 56.1   9.0 2.2 W | 269 4.3   3.8 0.02 0.02 55.5   1.7 76.9   3.8 17.8   4.2
Ridgeline Top (Brassfield) 9/3/26 1430 66.6   0.4 - - - - - - - 54.8   3.7 69.7   1.1 -
Ridgeline Low (Brassfield) 9/3/26 1430 66.8   0.7 - - - - - - - 56.8   4.6 67.8   0.9 -
Long Valley (Shannon) 6/29/26 1400 84.9   4.6 25   1 44.9   3.2 2.9 ENE | 75 10.2   0.4 0.00 0.00 46.4   0.4 86.9   6.5 13.7   1.8
High Valley Winery 9/3/26 1430 65.6   2.0 49   1 45.9   1.2 9.6 WSW | 238 17.0   7.0 0.00 0.01 57.3   4.2 67.3   2.2 17.0   1.1
Round Mtn Rd. 9/3/26 1300 64.9   2.2 - - - - - - - 57.0   5.3 65.9   2.9 -
Circle O 9/3/26 1745 56.6   9.7 - - - - - - - 56.0   5.8 69.7   3.4 -
Robertsbridge Vineyards 9/3/26 1745 58.8   12.0 82   41 53.2   7.2 - - - - - 56.3   5.8 70.6   2.9 -
Urgency Vineyard 9/3/26 1745 58.4   9.4 82   34 53.1   5.6 3.2 WNW | 284 10.3   0.9 0.00 0.01 55.4   2.5 68.7   3.9 13.4   0.1
Red Hills (Beckstoffer) 9/3/26 1745 58.8   9.2 86   36 54.6   5.8 - - - 0.00 0.00 55.5   2.4 68.9   2.9 -
Winters (Shannon) 9/3/26 1745 58.6   8.7 75   29 50.9   5.1 5.9 WNW | 300 10.9   2.3 0.00 0.00 50.0   0.5 67.5   3.7 16.3   2.3
Secret Pond (Shannon) 9/3/26 1745 58.7   7.8 72   25 49.9   4.0 4.6 NW | 326 11.5   0.9 0.00 0.00 51.8   1.4 67.2   2.3 18.3   4.0
Rolling Knolls (Shannon) 9/3/26 1745 61.9   7.8 67   21 50.7   2.7 4.7 W | 278 11.2   2.5 0.00 0.00 50.9   1.0 68.2   5.6 15.8   2.5
Lower Lake 9/3/26 1745 61.7   7.0 71   22 52.2   3.5 5.2 WNW | 294 10.0   0.0 0.00 0.00 52.8   0.5 68.3   5.3 17.9   2.9
Adamson Ranch 9/3/26 1745 64.8   3.2 54   2 47.8   2.0 2.7 SW | 235 7.9   2.2 0.00 0.00 56.8   7.2 70.8   4.2 18.0   0.2
Middletown (Diamond D) 9/3/26 1745 62.7   5.7 76   17 55.1   1.3 7.1 N | 354 14.8   1.5 0.00 0.04 57.6   2.4 68.6   3.1 17.2   0.9
Middletown-West (Domaine Helena) 9/3/26 1745 61.1   5.6 82   21 55.5   2.8 9.9 SW | 217 16.2   2.7 0.00 0.08 55.6   2.0 67.9   4.0 20.2   4.5
Middletown-South 9/3/26 1745 62.2   5.8 75   18 54.2   1.9 4.8 SW | 232 11.2   2.2 0.00 0.22 56.8   2.4 68.8   2.3 17.8   4.2
Jim Davis (Langtry) 9/3/26 1745 63.3   7.0 70   19 53.4   1.8 7.8 WSW | 244 12.9   5.0 0.00 0.00 58.0   5.0 69.0   3.2 20.0   2.1
Napa Valley Basin 9/3/26 1745 65.6   7.3 67   20 54.4   2.8 5.7 SW | 226 9.0   5.3 0.00 0.00 54.1   4.5 70.4   5.2 19.8   1.2
Lower Bohn 9/3/26 1745 64.7   7.3 66   18 52.9   1.9 3.8 SE | 133 7.6   6.3 0.00 0.00 57.6   8.7 70.0   4.5 20.0   0.8
Upper Bohn-North 9/3/26 1745 65.1   7.5 62   17 51.9   1.9 2.2 SSW | 210 5.0   4.0 0.00 0.00 56.4   5.0 71.3   4.9 14.0   1.1
Snell Peak Blk#9 9/3/26 1745 64.5   4.9 61   12 50.7   1.5 2.6 WSW | 257 6.9   4.7 0.00 0.00 55.8   0.5 67.4   6.4 16.6   1.8
Coyote Lake West 9/3/26 1745 64.0   7.9 71   22 54.5   2.4 4.3 SSW | 195 6.9   6.8 0.00 0.00 55.2   2.7 68.5   5.9 17.1   0.7
Coyote Lake Northeast 9/3/26 1745 64.2   8.7 71   22 54.5   2.1 - - - - - 55.8   1.9 69.9   4.4 -
Coyote Lake East 9/3/26 1745 65.2   7.8 69   21 54.8   2.8 - - - - - 52.2   1.4 70.1   4.5 -
Morgan Valley 9/3/26 0745 55.2   2.2 100   0 55.2   2.2 5.8 SSW | 206 8.9   1.9 0.00 0.00 51.6   0.0 56.0   2.3 22.2   5.7
Mine Pit North 9/3/26 0730 55.4   0.0 91   2 52.8   0.5 12.3 SSW | 196 17.9   6.0 - - 52.4   0.3 56.0   0.2 19.0   1.5
Mine Pit South 9/3/26 0730 56.1   1.2 89   2 53.0   1.9 7.3 SSW | 212 12.7   4.8 0.00 0.00 52.5   1.2 56.4   1.1 13.4   0.8
Cow Mountain 9/3/26 1745 48.7   6.8 - - 10.0 W | 271 15.3   5.7 0.00 0.26 48.0   1.2 53.4   7.1 26.5   1.8
Ukiah-SE (Ruddick) 9/3/26 1745 63.8   5.4 67   21 52.6   5.4 3.9 NNE | 12 6.5   7.2 0.00 0.08 57.0   1.8 68.7   6.5 16.6   1.4
Max     65.6 95 58.2 10.0 - 16.2 0.02 0.26 59.4 76.9 26.5
Avg     61.0 75 53.3 4.2 - 8.8 0.00 - - - -
Min     48.7 54 47.8 0.6 - 3.8 0.00 0.00 48.0 53.4 13.2